EGPF/GLA METAR and TAF weather

Enter ICAO airport designator
Station Type Date Time Source
EGPF METAR 2021/04/17 02:20 UTC NOAA

EGPF 170220Z AUTO 08003KT 9999 NCD 01/M01 Q1030


Station Type Date Time Source
EGPF Decoded METAR 2021/04/17 02:20 UTC NOAA

Glasgow Airport, United Kingdom (EGPF) 55-52N 004-26W 0M
Apr 16, 2021 - 10:20 PM EDT / 2021.04.17 0220 UTC
Wind: from the E (080 degrees) at 3 MPH (3 KT):0
Visibility: greater than 7 mile(s):0
Temperature: 33 F (1 C)
Dew Point: 30 F (-1 C)
Relative Humidity: 86%
Pressure (altimeter): 30.42 in. Hg (1030 hPa)
ob: EGPF 170220Z AUTO 08003KT 9999 NCD 01/M01 Q1030
cycle: 2

Station Type Date Time Source
EGPF TAF 2021/04/16 20:51 UTC NOAA

TAF
AMD TAF
AMD EGPF 162050Z 1620/1718 22004KT 9999 FEW040 PROB30 1700/1708 3000 BR

Example: see airport list